Time;durP1;ratioP1;P1;durP2;ratioP2;P2;SDS_P1;SDS_P2;PMS_P1;PMS_P2;Temp;Humidity;BMP_temperature;BMP_pressure;BME280_temperature;BME280_humidity;BME280_pressure;Samples;Min_cycle;Max_cycle;Signal;HPM_P1;HPM_P2
2024/01/01 00:02:19;;;;;;;23.42;3.60;;;;;;;3.55;100.00;99725.13;5035839;28;20033;-74
2024/01/01 00:04:44;;;;;;;25.13;3.85;;;;;;;3.62;100.00;99732.28;5037167;28;20030;-74
2024/01/01 00:07:10;;;;;;;26.85;4.90;;;;;;;3.55;100.00;99727.03;5037481;28;20091;-74
2024/01/01 00:09:35;;;;;;;18.85;3.35;;;;;;;3.52;100.00;99733.06;5027670;28;20030;-74
2024/01/01 00:12:01;;;;;;;21.45;3.08;;;;;;;3.52;100.00;99731.16;5037017;28;20041;-74
2024/01/01 00:14:26;;;;;;;24.88;3.53;;;;;;;3.51;100.00;99732.25;5037007;28;20104;-74
2024/01/01 00:16:52;;;;;;;26.35;3.08;;;;;;;3.52;100.00;99731.16;5035571;28;20052;-74
2024/01/01 00:19:17;;;;;;;29.15;3.17;;;;;;;3.50;100.00;99729.75;5036664;28;20053;-74
2024/01/01 00:21:43;;;;;;;23.40;3.15;;;;;;;3.44;100.00;99725.34;5036996;28;20033;-74
2024/01/01 00:24:08;;;;;;;19.73;3.45;;;;;;;3.48;100.00;99731.94;5036797;28;20103;-75
2024/01/01 00:26:34;;;;;;;20.13;3.58;;;;;;;3.46;100.00;99734.13;5035608;28;20088;-74
2024/01/01 00:28:59;;;;;;;18.45;2.90;;;;;;;3.47;100.00;99730.28;5036627;28;20041;-74
2024/01/01 00:31:25;;;;;;;15.55;2.90;;;;;;;3.48;100.00;99731.94;5035577;28;20398;-74
2024/01/01 00:33:51;;;;;;;18.65;2.78;;;;;;;3.42;100.00;99733.00;5035436;28;20093;-74
2024/01/01 00:36:16;;;;;;;20.02;3.15;;;;;;;3.41;100.00;99723.13;5040406;28;20041;-74
2024/01/01 00:38:42;;;;;;;15.68;2.75;;;;;;;3.41;100.00;99731.34;5039245;28;20398;-74
2024/01/01 00:41:13;;;;;;;14.65;2.80;;;;;;;3.41;100.00;99736.84;5035944;28;20104;-73
2024/01/01 00:43:38;;;;;;;19.38;2.72;;;;;;;3.41;100.00;99742.34;5018967;28;20044;-75
2024/01/01 00:46:04;;;;;;;14.55;3.15;;;;;;;3.38;100.00;99729.16;5036249;28;20036;-74
2024/01/01 00:48:29;;;;;;;14.00;3.60;;;;;;;3.42;100.00;99735.75;5034947;28;20500;-74
2024/01/01 00:50:55;;;;;;;15.05;3.38;;;;;;;3.36;100.00;99745.88;5036537;28;20037;-74
2024/01/01 00:53:20;;;;;;;20.77;3.20;;;;;;;3.32;100.00;99748.31;5035291;28;20041;-73
2024/01/01 00:55:46;;;;;;;17.05;3.25;;;;;;;3.32;100.00;99744.75;5036596;28;20501;-73
2024/01/01 00:58:12;;;;;;;11.15;2.38;;;;;;;3.32;100.00;99753.81;5036299;28;20029;-74
2024/01/01 01:00:38;;;;;;;14.25;3.25;;;;;;;3.31;100.00;99754.06;5036427;28;20036;-73
2024/01/01 01:03:04;;;;;;;13.57;2.40;;;;;;;3.28;100.00;99749.94;5036293;28;20029;-74
2024/01/01 01:05:30;;;;;;;12.40;2.72;;;;;;;3.29;100.00;99748.03;5036518;28;20029;-73
2024/01/01 01:07:55;;;;;;;14.70;2.72;;;;;;;3.26;100.00;99752.13;5067777;28;20036;-73
2024/01/01 01:10:20;;;;;;;14.75;2.47;;;;;;;3.27;100.00;99761.19;5027130;28;20474;-73
2024/01/01 01:12:46;;;;;;;20.90;2.53;;;;;;;3.29;100.00;99757.09;5036340;28;20025;-73
2024/01/01 01:15:11;;;;;;;17.45;2.72;;;;;;;3.27;100.00;99759.25;5036317;28;20030;-74
2024/01/01 01:17:37;;;;;;;13.98;2.20;;;;;;;3.28;100.00;99760.91;5035755;28;20033;-74
2024/01/01 01:20:03;;;;;;;13.93;2.35;;;;;;;3.24;100.00;99754.31;5036222;28;20514;-74
2024/01/01 01:22:28;;;;;;;13.60;2.47;;;;;;;3.24;100.00;99758.97;5036142;28;20030;-74
2024/01/01 01:24:54;;;;;;;12.75;2.25;;;;;;;3.22;100.00;99756.47;5036258;28;20025;-73
2024/01/01 01:27:19;;;;;;;15.82;2.70;;;;;;;3.22;100.00;99759.22;5033711;28;20030;-74
2024/01/01 01:29:44;;;;;;;11.10;1.98;;;;;;;3.22;100.00;99761.97;5036223;28;20033;-74
2024/01/01 01:32:10;;;;;;;17.45;3.40;;;;;;;3.19;100.00;99756.19;5035846;28;20498;-73
2024/01/01 01:34:35;;;;;;;12.25;2.45;;;;;;;3.15;100.00;99758.66;5036116;28;20052;-73
2024/01/01 01:37:01;;;;;;;9.20;1.95;;;;;;;3.20;100.00;99755.91;5044602;28;20436;-73
2024/01/01 01:39:26;;;;;;;12.73;2.30;;;;;;;3.19;100.00;99768.00;5036253;28;20033;-74
2024/01/01 01:41:53;;;;;;;12.52;2.15;;;;;;;3.18;100.00;99769.09;5035918;28;20033;-74
2024/01/01 01:44:19;;;;;;;13.73;2.78;;;;;;;3.14;100.00;99760.53;5036088;28;20025;-74
2024/01/01 01:46:44;;;;;;;13.52;2.28;;;;;;;3.16;100.00;99767.69;5034686;28;20041;-75
2024/01/01 01:49:10;;;;;;;13.48;2.40;;;;;;;3.10;100.00;99767.66;5018336;28;20041;-74
2024/01/01 01:51:35;;;;;;;11.38;2.13;;;;;;;3.08;100.00;99764.34;5034820;28;20033;-74
2024/01/01 01:54:01;;;;;;;15.48;2.85;;;;;;;3.10;100.00;99769.56;5039551;28;20033;-75
2024/01/01 01:56:26;;;;;;;13.02;2.20;;;;;;;3.08;100.00;99766.25;5038314;28;20026;-74
2024/01/01 01:58:52;;;;;;;8.32;2.30;;;;;;;3.05;100.00;99781.31;5039606;28;20025;-74
2024/01/01 02:01:17;;;;;;;8.90;2.00;;;;;;;3.06;100.00;99779.41;5038000;28;20040;-74
2024/01/01 02:03:44;;;;;;;10.18;3.03;;;;;;;3.07;100.00;99772.84;5039519;28;20037;-74
2024/01/01 02:06:11;;;;;;;11.52;2.17;;;;;;;3.04;100.00;99785.19;5039405;28;20037;-74
2024/01/01 02:08:37;;;;;;;13.10;2.30;;;;;;;3.03;100.00;99786.25;5033650;28;20387;-73
2024/01/01 02:11:02;;;;;;;8.98;1.70;;;;;;;3.03;100.00;99793.66;5034025;28;20036;-73
2024/01/01 02:13:29;;;;;;;11.25;1.80;;;;;;;2.98;100.00;99799.09;5039253;28;20382;-73
2024/01/01 02:15:54;;;;;;;12.07;2.67;;;;;;;2.99;100.00;99803.50;5039027;28;20040;-73
2024/01/01 02:18:20;;;;;;;11.60;2.22;;;;;;;3.01;100.00;99798.56;5037880;28;20033;-73
2024/01/01 02:20:45;;;;;;;10.60;2.80;;;;;;;2.96;100.00;99812.25;5039094;28;20188;-73
2024/01/01 02:23:14;;;;;;;10.93;2.00;;;;;;;3.00;100.00;99810.63;5038042;28;20029;-73
2024/01/01 02:25:39;;;;;;;17.63;2.35;;;;;;;2.99;100.00;99809.81;5036644;28;20039;-74
2024/01/01 02:28:05;;;;;;;12.75;1.70;;;;;;;2.99;100.00;99819.97;5037878;28;20030;-74
2024/01/01 02:30:31;;;;;;;11.65;2.17;;;;;;;2.96;100.00;99815.00;5039010;28;20083;-74
2024/01/01 02:32:56;;;;;;;13.73;2.40;;;;;;;2.95;100.00;99818.81;5037510;28;20482;-74
2024/01/01 02:35:22;;;;;;;9.55;2.03;;;;;;;2.94;100.00;99826.22;5038823;28;20029;-74
2024/01/01 02:37:47;;;;;;;9.70;2.33;;;;;;;2.90;100.00;99830.59;5046480;28;20029;-74
2024/01/01 02:40:13;;;;;;;17.38;2.08;;;;;;;2.91;100.00;99838.53;5038856;28;20497;-74
2024/01/01 02:42:39;;;;;;;14.57;1.92;;;;;;;2.88;100.00;99838.25;5027947;28;20029;-74
2024/01/01 02:45:06;;;;;;;8.85;2.38;;;;;;;2.90;100.00;99844.31;5038729;28;20033;-75
2024/01/01 02:47:31;;;;;;;13.13;1.92;;;;;;;2.85;100.00;99855.22;5037166;28;20037;-74
2024/01/01 02:49:57;;;;;;;12.65;2.20;;;;;;;2.81;100.00;99849.41;5038432;28;20030;-74
2024/01/01 02:52:22;;;;;;;9.98;1.77;;;;;;;2.84;100.00;99846.16;5038621;28;20071;-74
2024/01/01 02:54:48;;;;;;;13.95;2.28;;;;;;;2.81;100.00;99857.63;5038466;28;20479;-74
2024/01/01 02:57:14;;;;;;;11.52;1.90;;;;;;;2.83;100.00;99847.22;5032034;28;20030;-75
2024/01/01 02:59:40;;;;;;;14.68;2.97;;;;;;;2.84;100.00;99853.53;5034300;28;20375;-73
2024/01/01 03:02:07;;;;;;;11.88;1.98;;;;;;;2.86;100.00;99854.94;5038150;28;20033;-73
2024/01/01 03:04:33;;;;;;;12.88;2.05;;;;;;;2.81;100.00;99846.66;5036067;28;20032;-74
2024/01/01 03:06:58;;;;;;;13.25;2.00;;;;;;;2.82;100.00;99859.31;5038211;28;20029;-76
2024/01/01 03:09:24;;;;;;;13.35;1.98;;;;;;;2.82;100.00;99862.03;5028662;28;20030;-76
2024/01/01 03:11:49;;;;;;;10.48;2.10;;;;;;;2.82;100.00;99851.06;5036829;28;20033;-76
2024/01/01 03:14:14;;;;;;;13.48;2.15;;;;;;;2.81;100.00;99852.13;5020479;28;20029;-76
2024/01/01 03:16:40;;;;;;;10.30;2.28;;;;;;;2.82;100.00;99853.81;5016947;28;20029;-75
2024/01/01 03:19:06;;;;;;;13.57;2.03;;;;;;;2.85;100.00;99852.47;5020401;28;20037;-74
2024/01/01 03:21:32;;;;;;;11.45;2.30;;;;;;;2.87;100.00;99853.88;5038005;28;20044;-73
2024/01/01 03:23:57;;;;;;;9.88;1.90;;;;;;;2.85;100.00;99858.78;5038057;28;20030;-73
2024/01/01 03:26:23;;;;;;;12.35;2.58;;;;;;;2.87;100.00;99850.28;5034350;28;20044;-75
2024/01/01 03:28:48;;;;;;;14.45;3.03;;;;;;;2.90;100.00;99842.38;5037695;28;20405;-75
2024/01/01 03:31:14;;;;;;;12.35;1.70;;;;;;;2.92;100.00;99847.59;5036347;28;20108;-74
2024/01/01 03:33:39;;;;;;;7.07;2.08;;;;;;;2.90;100.00;99855.28;5037762;28;20037;-76
2024/01/01 03:36:05;;;;;;;13.35;3.15;;;;;;;2.90;100.00;99847.88;5039877;28;20037;-75
2024/01/01 03:38:31;;;;;;;12.45;2.13;;;;;;;2.90;100.00;99847.88;5043024;28;20036;-76
2024/01/01 03:40:56;;;;;;;14.70;2.42;;;;;;;2.88;100.00;99847.28;5037659;28;20025;-74
2024/01/01 03:43:22;;;;;;;14.25;3.38;;;;;;;2.94;100.00;99844.59;5036380;28;20492;-74
2024/01/01 03:45:47;;;;;;;11.13;2.30;;;;;;;2.89;100.00;99848.94;5019485;28;20034;-75
2024/01/01 03:48:13;;;;;;;13.48;1.95;;;;;;;2.90;100.00;99845.13;5036211;28;20030;-74
2024/01/01 03:50:38;;;;;;;14.25;2.45;;;;;;;2.90;100.00;99842.38;5037321;28;20107;-74
2024/01/01 03:53:04;;;;;;;9.95;2.00;;;;;;;2.90;100.00;99852.53;5037440;28;20033;-73
2024/01/01 03:55:30;;;;;;;12.68;1.90;;;;;;;2.86;100.00;99859.59;5037366;28;20033;-73
2024/01/01 03:57:55;;;;;;;15.38;2.60;;;;;;;2.85;100.00;99849.72;5036213;28;20029;-74
2024/01/01 04:00:21;;;;;;;16.50;2.33;;;;;;;2.89;100.00;99837.13;5019389;28;20474;-74
2024/01/01 04:02:48;;;;;;;10.63;2.17;;;;;;;2.85;100.00;99845.06;5036892;28;20104;-73
2024/01/01 04:05:14;;;;;;;12.68;2.20;;;;;;;2.83;100.00;99851.91;5025976;28;20029;-73
2024/01/01 04:07:39;;;;;;;10.77;2.38;;;;;;;2.85;100.00;99855.22;5035512;28;20040;-75
2024/01/01 04:10:06;;;;;;;12.93;2.58;;;;;;;2.82;100.00;99853.81;5028048;28;20044;-73
2024/01/01 04:12:31;;;;;;;18.23;2.50;;;;;;;2.78;100.00;99860.06;5035718;28;20085;-75
2024/01/01 04:14:57;;;;;;;13.15;2.17;;;;;;;2.80;100.00;99864.22;5035552;28;20427;-73
2024/01/01 04:17:22;;;;;;;19.00;3.15;;;;;;;2.80;100.00;99853.25;5036644;28;20541;-75
2024/01/01 04:19:47;;;;;;;14.25;2.20;;;;;;;2.77;100.00;99850.19;5035633;28;20057;-77
2024/01/01 04:22:18;;;;;;;12.57;2.47;;;;;;;2.82;100.00;99853.00;5035718;28;20079;-74
2024/01/01 04:24:43;;;;;;;21.13;2.60;;;;;;;2.81;100.00;99862.28;5036850;28;20152;-72
2024/01/01 04:27:09;;;;;;;15.40;2.78;;;;;;;2.78;100.00;99849.91;5033807;28;20057;-73
2024/01/01 04:29:34;;;;;;;11.90;2.13;;;;;;;2.79;100.00;99846.13;5018990;28;20029;-73
2024/01/01 04:32:00;;;;;;;13.55;2.40;;;;;;;2.77;100.00;99853.75;5036603;28;20026;-73
2024/01/01 04:34:25;;;;;;;17.17;2.45;;;;;;;2.77;100.00;99844.72;5035453;28;20108;-73
2024/01/01 04:36:50;;;;;;;22.40;3.28;;;;;;;2.75;100.00;99847.69;5045470;28;20673;-73
2024/01/01 04:39:16;;;;;;;15.60;2.50;;;;;;;2.76;100.00;99852.13;5036633;28;20025;-73
2024/01/01 04:41:41;;;;;;;15.07;2.25;;;;;;;2.79;100.00;99846.13;5035744;28;20025;-73
2024/01/01 04:44:07;;;;;;;15.35;2.13;;;;;;;2.76;100.00;99857.59;5036666;28;20040;-73
2024/01/01 04:46:32;;;;;;;12.10;2.72;;;;;;;2.76;100.00;99843.03;5036329;28;20025;-73
2024/01/01 04:48:58;;;;;;;9.43;2.10;;;;;;;2.75;100.00;99835.91;5035332;28;20033;-74
2024/01/01 04:51:23;;;;;;;16.60;2.38;;;;;;;2.76;100.00;99841.16;5035638;28;20029;-73
2024/01/01 04:53:49;;;;;;;22.38;2.70;;;;;;;2.73;100.00;99852.63;5018966;28;20087;-73
2024/01/01 04:56:15;;;;;;;11.45;2.58;;;;;;;2.72;100.00;99850.13;5036503;28;20029;-73
2024/01/01 04:58:40;;;;;;;15.25;3.00;;;;;;;2.70;100.00;99858.59;5018777;28;20029;-74
2024/01/01 05:01:06;;;;;;;18.67;2.80;;;;;;;2.72;100.00;99850.97;5035005;28;20040;-73
2024/01/01 05:03:32;;;;;;;17.25;2.60;;;;;;;2.69;100.00;99856.97;5035201;28;20048;-73
2024/01/01 05:05:58;;;;;;;14.43;2.15;;;;;;;2.73;100.00;99846.31;5035205;28;20215;-74
2024/01/01 05:08:24;;;;;;;16.80;3.38;;;;;;;2.74;100.00;99840.56;5031216;28;20029;-73
2024/01/01 05:10:49;;;;;;;8.50;1.98;;;;;;;2.73;100.00;99835.34;5030092;28;20199;-73
2024/01/01 05:13:16;;;;;;;19.77;2.58;;;;;;;2.75;100.00;99839.47;5036299;28;20030;-74
2024/01/01 05:15:43;;;;;;;11.48;2.47;;;;;;;2.71;100.00;99846.56;5068445;28;20062;-74
2024/01/01 05:18:08;;;;;;;16.73;2.75;;;;;;;2.70;100.00;99844.91;5035144;28;20037;-74
2024/01/01 05:20:34;;;;;;;16.17;2.13;;;;;;;2.78;100.00;99827.16;5036209;28;20056;-73
2024/01/01 05:22:59;;;;;;;12.63;2.53;;;;;;;2.74;100.00;99831.53;5036119;28;20049;-73
2024/01/01 05:25:28;;;;;;;17.08;3.45;;;;;;;2.73;100.00;99835.34;5033461;28;20033;-73
2024/01/01 05:27:53;;;;;;;18.40;2.20;;;;;;;2.73;100.00;99835.34;5037846;28;20033;-73
2024/01/01 05:30:19;;;;;;;10.57;1.77;;;;;;;2.69;100.00;99841.34;5040174;28;20422;-73
2024/01/01 05:32:44;;;;;;;10.32;2.22;;;;;;;2.72;100.00;99829.03;5038502;28;20120;-73
2024/01/01 05:35:10;;;;;;;12.18;2.47;;;;;;;2.73;100.00;99838.06;5022373;28;20040;-73
2024/01/01 05:37:35;;;;;;;11.48;2.20;;;;;;;2.67;100.00;99838.03;5047471;28;20061;-73
2024/01/01 05:40:01;;;;;;;13.10;2.53;;;;;;;2.69;100.00;99840.50;5040020;28;20030;-74
2024/01/01 05:42:28;;;;;;;13.60;2.65;;;;;;;2.69;100.00;99843.25;5038684;28;20033;-74
2024/01/01 05:44:53;;;;;;;14.85;2.58;;;;;;;2.69;100.00;99846.00;5039857;28;20037;-74
2024/01/01 05:47:19;;;;;;;15.40;2.10;;;;;;;2.69;100.00;99846.81;5005078;28;20037;-74
2024/01/01 05:49:44;;;;;;;12.60;2.90;;;;;;;2.69;100.00;99844.06;5039712;28;20032;-73
2024/01/01 05:52:10;;;;;;;10.43;2.40;;;;;;;2.69;100.00;99846.00;5039425;28;20037;-74
2024/01/01 05:54:36;;;;;;;11.02;2.50;;;;;;;2.69;100.00;99846.00;5039704;28;20056;-73
2024/01/01 05:57:01;;;;;;;13.02;2.20;;;;;;;2.69;100.00;99846.00;5038365;28;20040;-74
2024/01/01 05:59:26;;;;;;;12.15;2.13;;;;;;;2.73;100.00;99857.28;5039534;28;20029;-74
2024/01/01 06:01:52;;;;;;;10.38;1.95;;;;;;;2.71;100.00;99854.81;5039114;28;20038;-74
2024/01/01 06:04:18;;;;;;;12.65;2.38;;;;;;;2.73;100.00;99854.53;5039534;28;20030;-74
2024/01/01 06:06:43;;;;;;;15.98;3.25;;;;;;;2.70;100.00;99853.13;5037729;28;20029;-74
2024/01/01 06:09:09;;;;;;;11.95;2.30;;;;;;;2.76;100.00;99854.84;5030139;28;20045;-74
2024/01/01 06:11:34;;;;;;;10.50;2.00;;;;;;;2.72;100.00;99858.38;5039330;28;20540;-74
2024/01/01 06:14:00;;;;;;;16.88;2.83;;;;;;;2.73;100.00;99862.75;5037821;28;20064;-74
2024/01/01 06:16:25;;;;;;;14.65;2.45;;;;;;;2.74;100.00;99864.44;5001685;28;20034;-74
2024/01/01 06:18:51;;;;;;;9.77;2.00;;;;;;;2.77;100.00;99867.47;5033466;28;20034;-74
2024/01/01 06:21:16;;;;;;;10.95;2.05;;;;;;;2.74;100.00;99876.22;5039191;28;20034;-74
2024/01/01 06:23:45;;;;;;;12.30;2.30;;;;;;;2.75;100.00;99875.13;5039159;28;20033;-74
2024/01/01 06:26:11;;;;;;;9.27;2.10;;;;;;;2.75;100.00;99871.56;5035531;28;20037;-74
2024/01/01 06:28:37;;;;;;;8.57;2.35;;;;;;;2.78;100.00;99884.75;5039628;28;20030;-74
2024/01/01 06:31:02;;;;;;;13.25;2.40;;;;;;;2.77;100.00;99878.44;5038756;28;20040;-74
2024/01/01 06:33:29;;;;;;;12.70;2.28;;;;;;;2.78;100.00;99887.50;5037877;28;20083;-74
2024/01/01 06:35:56;;;;;;;9.15;1.95;;;;;;;2.80;100.00;99888.91;5040776;28;20359;-74
2024/01/01 06:38:22;;;;;;;8.45;1.90;;;;;;;2.81;100.00;99886.97;5045225;28;20022;-74
2024/01/01 06:40:47;;;;;;;9.13;1.88;;;;;;;2.79;100.00;99891.91;5038793;28;20394;-73
2024/01/01 06:43:13;;;;;;;12.48;2.13;;;;;;;2.77;100.00;99903.13;5037482;28;20037;-74
2024/01/01 06:45:38;;;;;;;10.18;1.95;;;;;;;2.74;100.00;99898.16;5038534;28;20060;-74
2024/01/01 06:48:04;;;;;;;18.55;2.53;;;;;;;2.77;100.00;99903.13;5037417;28;20029;-74
2024/01/01 06:50:30;;;;;;;12.50;2.10;;;;;;;2.78;100.00;99898.47;5038793;28;20103;-74
2024/01/01 06:52:55;;;;;;;11.18;2.10;;;;;;;2.74;100.00;99900.91;5037288;28;20366;-74
2024/01/01 06:55:22;;;;;;;12.45;2.30;;;;;;;2.78;100.00;99903.94;5038653;28;20033;-74
2024/01/01 06:57:48;;;;;;;12.88;2.60;;;;;;;2.75;100.00;99909.94;5037168;28;20051;-74
2024/01/01 07:00:15;;;;;;;12.48;2.15;;;;;;;2.76;100.00;99911.59;5037248;28;20432;-74
2024/01/01 07:02:41;;;;;;;8.55;2.15;;;;;;;2.76;100.00;99911.59;5036968;28;20029;-74
2024/01/01 07:05:07;;;;;;;13.80;2.10;;;;;;;2.79;100.00;99911.09;5038500;28;20501;-74
2024/01/01 07:07:33;;;;;;;12.75;1.88;;;;;;;2.76;100.00;99908.84;5036959;28;20192;-74
2024/01/01 07:09:58;;;;;;;10.13;1.90;;;;;;;2.81;100.00;99908.91;5029224;28;20026;-74
2024/01/01 07:12:26;;;;;;;14.63;2.55;;;;;;;2.80;100.00;99915.50;5038192;28;20026;-73
2024/01/01 07:14:52;;;;;;;13.70;2.35;;;;;;;2.77;100.00;99914.09;5037096;28;20044;-73
2024/01/01 07:17:19;;;;;;;14.32;2.10;;;;;;;2.79;100.00;99917.41;5036841;28;20034;-73
2024/01/01 07:19:44;;;;;;;10.55;1.88;;;;;;;2.79;100.00;99920.16;5036742;28;20125;-73
2024/01/01 07:22:10;;;;;;;7.97;1.95;;;;;;;2.77;100.00;99922.31;5036893;28;20033;-73
2024/01/01 07:24:35;;;;;;;7.57;1.67;;;;;;;2.79;100.00;99927.56;5037924;28;20406;-73
2024/01/01 07:27:01;;;;;;;15.60;2.95;;;;;;;2.81;100.00;99920.69;5036679;28;20084;-73
2024/01/01 07:29:27;;;;;;;13.48;2.50;;;;;;;2.82;100.00;99938.00;5037847;28;20444;-73
2024/01/01 07:31:53;;;;;;;12.85;1.83;;;;;;;2.82;100.00;99941.56;5037621;28;20034;-73
2024/01/01 07:34:19;;;;;;;12.18;2.05;;;;;;;2.85;100.00;99945.72;5037595;28;20457;-73
2024/01/01 07:36:45;;;;;;;14.05;1.95;;;;;;;2.83;100.00;99932.25;5029077;28;20101;-73
2024/01/01 07:39:11;;;;;;;16.92;2.35;;;;;;;2.85;100.00;99948.47;5036649;28;20034;-73
2024/01/01 07:41:36;;;;;;;11.85;1.90;;;;;;;2.88;100.00;99942.47;5016932;28;20038;-73
2024/01/01 07:44:02;;;;;;;16.30;2.55;;;;;;;2.85;100.00;99927.34;5037609;28;20052;-73
2024/01/01 07:46:28;;;;;;;11.23;2.40;;;;;;;2.81;100.00;99926.19;5037397;28;20052;-73
2024/01/01 07:48:55;;;;;;;12.32;2.05;;;;;;;2.83;100.00;99925.94;5016722;28;20025;-73
2024/01/01 07:51:21;;;;;;;14.20;1.70;;;;;;;2.81;100.00;99934.41;5035650;28;20497;-73
2024/01/01 07:53:48;;;;;;;11.40;2.65;;;;;;;2.80;100.00;99935.50;5037340;28;20064;-73
2024/01/01 07:56:13;;;;;;;18.52;2.17;;;;;;;2.80;100.00;99943.75;5036401;28;20500;-73
2024/01/01 07:58:39;;;;;;;14.63;2.42;;;;;;;2.76;100.00;99959.06;5037232;28;20029;-73
2024/01/01 08:01:04;;;;;;;8.10;1.92;;;;;;;2.77;100.00;99959.88;5037071;28;20033;-73
2024/01/01 08:03:30;;;;;;;11.95;2.08;;;;;;;2.78;100.00;99956.03;5037238;28;20088;-74
2024/01/01 08:05:55;;;;;;;7.90;1.58;;;;;;;2.79;100.00;99961.28;5037272;28;20041;-73
2024/01/01 08:08:20;;;;;;;14.68;2.25;;;;;;;2.80;100.00;99967.59;5033538;28;20033;-73
2024/01/01 08:10:46;;;;;;;14.80;1.70;;;;;;;2.81;100.00;99969.25;5030311;28;20041;-73
2024/01/01 08:13:12;;;;;;;15.65;2.30;;;;;;;2.78;100.00;99976.06;5037114;28;20040;-73
2024/01/01 08:15:37;;;;;;;17.30;2.03;;;;;;;2.81;100.00;99985.69;5036880;28;20085;-73
2024/01/01 08:18:03;;;;;;;14.40;2.17;;;;;;;2.82;100.00;99977.22;5037233;28;20029;-73
2024/01/01 08:20:29;;;;;;;9.13;2.15;;;;;;;2.82;100.00;99990.94;5037004;28;20057;-73
2024/01/01 08:22:55;;;;;;;14.63;1.92;;;;;;;2.84;100.00;99996.16;5036920;28;20033;-73
2024/01/01 08:25:21;;;;;;;12.27;2.20;;;;;;;2.86;100.00;99994.00;5068459;28;20029;-73
2024/01/01 08:27:47;;;;;;;11.13;1.92;;;;;;;2.87;100.00;99996.50;5028914;28;20032;-73
2024/01/01 08:30:13;;;;;;;14.57;2.10;;;;;;;2.90;100.00;100001.47;5035534;28;20032;-73
2024/01/01 08:32:38;;;;;;;10.48;2.20;;;;;;;2.95;100.00;100008.09;5015729;28;20390;-73
2024/01/01 08:35:04;;;;;;;10.15;2.40;;;;;;;2.94;100.00;100017.41;5003039;28;20037;-74
2024/01/01 08:37:29;;;;;;;10.18;2.22;;;;;;;2.98;100.00;100002.09;5043872;28;20035;-74
2024/01/01 08:39:56;;;;;;;12.10;2.05;;;;;;;3.03;100.00;100002.16;5035542;28;20515;-74
2024/01/01 08:42:21;;;;;;;13.82;2.97;;;;;;;3.09;100.00;100004.72;5035406;28;20044;-73
2024/01/01 08:44:46;;;;;;;7.13;2.25;;;;;;;3.13;100.00;99994.88;5035613;28;20034;-75
2024/01/01 08:47:12;;;;;;;17.83;4.45;;;;;;;3.15;100.00;99994.63;5035048;28;20025;-73
2024/01/01 08:49:37;;;;;;;15.23;5.30;;;;;;;3.21;100.00;99995.50;5035387;28;20030;-74
2024/01/01 08:52:03;;;;;;;11.85;4.60;;;;;;;3.27;100.00;99998.03;5036422;28;20066;-75
2024/01/01 08:54:29;;;;;;;18.42;4.43;;;;;;;3.31;100.00;99988.19;5016086;28;20470;-74
2024/01/01 08:56:54;;;;;;;13.85;3.60;;;;;;;3.36;100.00;99982.75;5036450;28;20051;-74
2024/01/01 08:59:19;;;;;;;14.75;3.70;;;;;;;3.39;100.00;99986.91;5036446;28;20033;-74
2024/01/01 09:01:45;;;;;;;12.85;3.92;;;;;;;3.45;100.00;99980.34;5035237;28;20029;-75
2024/01/01 09:04:11;;;;;;;10.38;2.97;;;;;;;3.50;100.00;99979.59;5035295;28;20423;-73
2024/01/01 09:06:36;;;;;;;11.38;2.70;;;;;;;3.54;100.00;99978.81;4998976;28;20064;-73
2024/01/01 09:09:02;;;;;;;12.05;3.08;;;;;;;3.62;100.00;99971.19;5022311;28;20022;-74
2024/01/01 09:11:27;;;;;;;11.27;3.08;;;;;;;3.67;100.00;99960.25;5018895;28;20540;-74
2024/01/01 09:13:53;;;;;;;15.48;3.20;;;;;;;3.76;100.00;99958.66;5018796;28;20029;-74
2024/01/01 09:16:18;;;;;;;9.90;3.53;;;;;;;3.84;100.00;99963.66;5034774;28;20041;-75
2024/01/01 09:18:44;;;;;;;17.17;3.58;;;;;;;3.92;100.00;99962.34;5021578;28;20033;-75
2024/01/01 09:21:14;;;;;;;15.05;3.15;;;;;;;4.02;100.00;99962.44;5035069;28;20273;-75
2024/01/01 09:23:39;;;;;;;12.50;3.10;;;;;;;4.09;100.00;99960.28;5036546;28;20025;-75
2024/01/01 09:26:05;;;;;;;14.85;2.97;;;;;;;4.20;100.00;99945.50;5033811;28;20033;-74
2024/01/01 09:28:31;;;;;;;12.65;3.08;;;;;;;4.30;100.00;99943.94;5034961;28;20045;-75
2024/01/01 09:30:57;;;;;;;19.23;2.60;;;;;;;4.38;100.00;99938.75;5035966;28;20104;-75
2024/01/01 09:33:22;;;;;;;17.55;3.22;;;;;;;4.50;100.00;99945.97;5035050;28;20505;-72
2024/01/01 09:35:48;;;;;;;13.25;2.83;;;;;;;4.60;100.00;99946.00;5019623;28;20485;-75
2024/01/01 09:38:13;;;;;;;14.10;2.63;;;;;;;4.68;100.00;99960.06;4990604;28;20026;-75
2024/01/01 09:40:39;;;;;;;13.95;2.80;;;;;;;4.80;100.00;99970.03;5067051;28;20426;-75
2024/01/01 09:43:04;;;;;;;13.52;2.42;;;;;;;4.90;100.00;99970.03;5036266;28;20036;-75
2024/01/01 09:45:30;;;;;;;14.60;3.38;;;;;;;5.00;100.00;99966.50;5014509;28;20052;-75
2024/01/01 09:47:55;;;;;;;16.63;2.60;;;;;;;5.10;100.00;99972.88;5007531;28;20470;-75
2024/01/01 09:50:20;;;;;;;12.93;2.25;;;;;;;5.21;100.00;99978.41;5015302;28;20030;-75
2024/01/01 09:52:46;;;;;;;15.02;2.97;;;;;;;5.31;100.00;99989.44;5028562;28;20033;-75
2024/01/01 09:55:12;;;;;;;16.55;2.65;;;;;;;5.41;100.00;99994.97;5015038;28;20033;-77
2024/01/01 09:57:38;;;;;;;12.05;2.30;;;;;;;5.50;100.00;99987.81;5011761;28;20056;-77
2024/01/01 10:00:05;;;;;;;13.40;2.20;;;;;;;5.60;100.00;99993.34;5002159;28;20053;-77
2024/01/01 10:02:31;;;;;;;9.73;2.22;;;;;;;5.69;100.00;99995.56;5015015;28;20041;-77
2024/01/01 10:05:13;;;;;;;21.08;2.65;;;;;;;5.81;100.00;99998.88;5035193;28;20037;-77
2024/01/01 10:07:38;;;;;;;13.50;2.60;;;;;;;5.90;100.00;99993.63;5017124;28;20039;-77
2024/01/01 10:10:04;;;;;;;19.30;2.50;;;;;;;5.97;100.00;99986.78;5026547;28;20026;-76
2024/01/01 10:12:31;;;;;;;9.77;2.20;;;;;;;6.07;100.00;99985.13;5035873;28;20474;-76
2024/01/01 10:14:59;;;;;;;8.77;2.13;;;;;;;6.17;100.00;99996.97;5018035;28;20025;-76
2024/01/01 10:17:24;;;;;;;9.82;2.45;;;;;;;6.26;100.00;99994.47;5049655;28;20059;-76
2024/01/01 10:19:51;;;;;;;17.65;3.03;;;;;;;6.36;100.00;99997.22;5001858;28;20558;-75
2024/01/01 10:22:19;;;;;;;11.63;1.90;;;;;;;6.44;100.00;99999.41;5033346;28;20038;-75
2024/01/01 10:24:49;;;;;;;13.55;2.13;;;;;;;6.57;100.00;100006.25;5037763;28;20048;-77
2024/01/01 10:27:19;;;;;;;13.45;2.30;;;;;;;6.65;100.00;100002.13;5033467;28;20105;-76
2024/01/01 10:29:48;;;;;;;13.90;2.13;;;;;;;6.73;100.00;99998.78;5017762;28;20038;-76
2024/01/01 10:32:17;;;;;;;12.23;2.08;;;;;;;6.85;100.00;100006.72;5020223;28;20030;-76
2024/01/01 10:34:47;;;;;;;9.75;2.00;;;;;;;6.92;100.00;100010.84;5017178;28;20033;-76
2024/01/01 10:37:18;;;;;;;8.57;2.03;;;;;;;7.01;100.00;100008.31;5034160;28;20478;-76
2024/01/01 10:39:44;;;;;;;12.00;2.05;;;;;;;7.12;100.00;100011.88;5002064;28;20395;-76
2024/01/01 10:42:10;;;;;;;12.63;1.83;;;;;;;7.18;100.00;100010.72;5050805;28;20055;-75
2024/01/01 10:44:36;;;;;;;12.70;2.22;;;;;;;7.26;100.00;100012.91;5017874;28;20109;-76
2024/01/01 10:47:07;;;;;;;12.75;1.85;;;;;;;7.31;100.00;100001.00;5018827;28;20029;-76
2024/01/01 10:49:33;;;;;;;11.80;1.80;;;;;;;7.37;100.00;99997.94;5017614;28;20034;-77
2024/01/01 10:52:05;;;;;;;8.00;1.60;;;;;;;7.45;100.00;99990.16;5019919;28;20036;-77
2024/01/01 10:55:28;;;;;;;6.97;1.60;;;;;;;7.56;100.00;99983.44;5018289;28;20034;-77
2024/01/01 10:58:15;;;;;;;12.48;1.70;;;;;;;7.60;100.00;99998.34;4995349;28;20046;-77
2024/01/01 11:01:15;;;;;;;10.00;2.22;;;;;;;7.68;100.00;99983.09;4999668;28;20487;-77
2024/01/01 11:03:41;;;;;;;6.63;1.70;;;;;;;7.75;100.00;99981.66;4980394;28;20675;-77
2024/01/01 11:06:32;;;;;;;10.60;1.50;;;;;;;7.81;100.00;99983.25;4995432;28;20494;-77
2024/01/01 11:09:17;;;;;;;8.88;1.70;;;;;;;7.89;100.00;99964.41;4996205;28;20046;-77
2024/01/01 11:11:48;;;;;;;12.27;1.40;;;;;;;7.97;100.00;99963.78;5004310;28;20098;-76
2024/01/01 11:14:38;;;;;;;13.38;1.48;;;;;;;8.08;100.00;99959.81;4966519;28;20042;-76
2024/01/01 11:17:06;;;;;;;10.25;1.67;;;;;;;8.11;100.00;99964.78;4990156;28;20041;-76
2024/01/01 11:19:42;;;;;;;6.22;1.35;;;;;;;8.18;100.00;99953.34;4983572;28;20085;-77
2024/01/01 11:22:39;;;;;;;11.13;1.83;;;;;;;8.23;100.00;99964.38;4983428;28;20049;-76
2024/01/01 11:25:05;;;;;;;6.93;1.00;;;;;;;8.25;100.00;99957.44;4989250;28;20042;-76